createdAt,value
2022-09-25T00:00:58.234Z,11.04
2022-09-25T00:03:27.711Z,11.00
2022-09-25T00:06:02.075Z,10.96
2022-09-25T00:08:29.576Z,10.91
2022-09-25T00:10:56.386Z,10.87
2022-09-25T00:13:23.504Z,10.85
2022-09-25T00:15:56.713Z,10.83
2022-09-25T00:18:43.715Z,10.82
2022-09-25T00:21:14.349Z,10.79
2022-09-25T00:23:44.368Z,10.77
2022-09-25T00:26:12.944Z,10.78
2022-09-25T00:28:40.873Z,10.77
2022-09-25T00:31:09.497Z,10.75
2022-09-25T00:33:36.670Z,10.72
2022-09-25T00:36:06.320Z,10.67
2022-09-25T00:38:34.454Z,10.61
2022-09-25T00:41:01.684Z,10.55
2022-09-25T00:43:47.826Z,10.50
2022-09-25T00:46:34.708Z,10.46
2022-09-25T00:49:16.189Z,10.42
2022-09-25T00:51:54.844Z,10.40
2022-09-25T00:54:36.846Z,10.38
2022-09-25T00:57:08.083Z,10.32
2022-09-25T00:59:40.698Z,10.29
2022-09-25T01:02:14.330Z,10.26
2022-09-25T01:04:46.425Z,10.23
2022-09-25T01:07:14.919Z,10.20
2022-09-25T01:09:41.813Z,10.17
2022-09-25T01:12:09.661Z,10.15
2022-09-25T01:14:37.456Z,10.11
2022-09-25T01:17:22.092Z,10.05
2022-09-25T01:20:06.586Z,10.00
2022-09-25T01:22:42.684Z,9.95
2022-09-25T01:25:40.382Z,9.90
2022-09-25T01:28:53.632Z,9.88
2022-09-25T01:31:34.939Z,9.86
2022-09-25T01:34:17.037Z,9.84
2022-09-25T01:36:51.268Z,9.84
2022-09-25T01:39:22.858Z,9.84
2022-09-25T01:42:07.059Z,9.85
2022-09-25T01:44:38.395Z,9.86
2022-09-25T01:47:20.384Z,9.81
2022-09-25T01:50:00.381Z,9.76
2022-09-25T01:52:46.877Z,9.73
2022-09-25T01:55:20.325Z,9.67
2022-09-25T01:57:53.752Z,9.60
2022-09-25T02:00:23.497Z,9.56
2022-09-25T02:03:00.375Z,9.50
2022-09-25T02:05:56.117Z,9.49
2022-09-25T02:08:28.671Z,9.52
2022-09-25T02:11:02.466Z,9.56
2022-09-25T02:13:41.985Z,9.58
2022-09-25T02:16:13.822Z,9.59
2022-09-25T02:18:59.487Z,9.57
2022-09-25T02:21:37.188Z,9.57
2022-09-25T02:24:23.089Z,9.59
2022-09-25T02:26:50.779Z,9.61
2022-09-25T02:29:18.492Z,9.63
2022-09-25T02:31:50.300Z,9.63
2022-09-25T02:34:17.488Z,9.62
2022-09-25T02:36:44.977Z,9.64
2022-09-25T02:39:14.786Z,9.64
2022-09-25T02:41:56.195Z,9.65
2022-09-25T02:44:36.514Z,9.68
2022-09-25T02:47:40.917Z,9.71
2022-09-25T02:50:21.679Z,9.74
2022-09-25T02:52:56.060Z,9.76
2022-09-25T02:55:57.936Z,9.78
2022-09-25T02:58:30.224Z,9.80
2022-09-25T03:01:00.014Z,9.82
2022-09-25T03:03:28.161Z,9.82
2022-09-25T03:05:59.114Z,9.80
2022-09-25T03:08:41.740Z,9.77
2022-09-25T03:11:14.111Z,9.76
2022-09-25T03:13:42.488Z,9.75
2022-09-25T03:16:15.003Z,9.73
2022-09-25T03:18:42.025Z,9.71
2022-09-25T03:21:08.947Z,9.70
2022-09-25T03:23:35.614Z,9.65
2022-09-25T03:26:04.651Z,9.62
2022-09-25T03:28:32.149Z,9.55
2022-09-25T03:31:07.611Z,9.49
2022-09-25T03:33:36.940Z,9.45
2022-09-25T03:36:12.150Z,9.41
2022-09-25T03:38:41.338Z,9.38
2022-09-25T03:41:12.197Z,9.33
2022-09-25T03:43:40.728Z,9.30
2022-09-25T03:46:10.744Z,9.26
2022-09-25T03:48:38.289Z,9.22
2022-09-25T03:51:05.853Z,9.20
2022-09-25T03:53:33.714Z,9.18
2022-09-25T03:56:02.083Z,9.16
2022-09-25T03:58:29.551Z,9.14
2022-09-25T04:05:49.766Z,9.06
2022-09-25T04:09:16.175Z,9.03
2022-09-25T04:16:34.012Z,8.97
2022-09-25T04:19:36.917Z,8.95
2022-09-25T04:22:03.962Z,8.92
2022-09-25T04:24:49.231Z,8.89
2022-09-25T04:27:21.839Z,8.84
2022-09-25T04:29:49.304Z,8.81
2022-09-25T04:32:35.413Z,8.76
2022-09-25T04:35:02.581Z,8.71
2022-09-25T04:37:29.353Z,8.68
2022-09-25T04:39:57.833Z,8.65
2022-09-25T04:42:25.554Z,8.63
2022-09-25T04:44:56.698Z,8.61
2022-09-25T04:47:26.492Z,8.60
2022-09-25T04:49:53.273Z,8.59
2022-09-25T04:52:20.585Z,8.55
2022-09-25T04:54:48.446Z,8.57
2022-09-25T04:57:32.647Z,8.59
2022-09-25T05:00:06.623Z,8.61
2022-09-25T05:02:33.461Z,8.65
2022-09-25T05:05:00.288Z,8.72
2022-09-25T05:12:32.761Z,8.86
2022-09-25T05:15:59.351Z,8.92
2022-09-25T05:19:25.869Z,8.98
2022-09-25T05:22:52.374Z,9.00
2022-09-25T05:30:03.261Z,9.16
2022-09-25T05:33:29.684Z,9.24
2022-09-25T05:36:56.278Z,9.35
2022-09-25T05:40:22.790Z,9.43
2022-09-25T05:46:42.533Z,9.54
2022-09-25T05:49:09.273Z,9.58
2022-09-25T05:51:35.894Z,9.61
2022-09-25T05:54:02.792Z,9.64
2022-09-25T05:56:29.601Z,9.66
2022-09-25T05:58:58.786Z,9.66
2022-09-25T06:01:26.322Z,9.63
2022-09-25T06:03:53.049Z,9.61
2022-09-25T06:06:22.497Z,9.59
2022-09-25T06:08:54.637Z,9.59
2022-09-25T06:11:22.490Z,9.61
2022-09-25T06:13:54.294Z,9.64
2022-09-25T06:16:21.699Z,9.67
2022-09-25T06:18:48.538Z,9.67
2022-09-25T06:21:15.263Z,9.70
2022-09-25T06:23:45.110Z,9.68
2022-09-25T06:26:12.654Z,9.67
2022-09-25T06:28:39.625Z,9.67
2022-09-25T06:31:06.735Z,9.68
2022-09-25T06:34:33.187Z,9.69
2022-09-25T06:38:02.727Z,9.73
2022-09-25T06:45:12.056Z,9.81
2022-09-25T06:48:41.344Z,9.84
2022-09-25T06:52:08.039Z,9.91
2022-09-25T06:55:34.449Z,9.95
2022-09-25T07:03:08.531Z,10.02
2022-09-25T07:06:34.990Z,10.01
2022-09-25T07:13:44.117Z,10.01
2022-09-25T07:17:13.663Z,10.04
2022-09-25T07:19:40.697Z,10.07
2022-09-25T07:26:10.598Z,10.19
2022-09-25T07:28:39.291Z,10.23
2022-09-25T07:31:21.195Z,10.26
2022-09-25T07:33:48.820Z,10.30
2022-09-25T07:37:15.261Z,10.31
2022-09-25T07:40:14.506Z,10.38
2022-09-25T07:42:42.113Z,10.43
2022-09-25T07:45:09.571Z,10.43
2022-09-25T07:47:36.382Z,10.47
2022-09-25T07:50:03.366Z,10.51
2022-09-25T07:52:30.111Z,10.55
2022-09-25T07:55:36.851Z,10.58
2022-09-25T07:58:03.548Z,10.64
2022-09-25T08:00:30.216Z,10.69
2022-09-25T08:03:56.784Z,10.74
2022-09-25T08:06:23.434Z,10.79
2022-09-25T08:09:50.000Z,10.84
2022-09-25T08:16:56.130Z,10.91
2022-09-25T08:19:24.128Z,10.97
2022-09-25T08:21:50.924Z,11.02
2022-09-25T08:24:17.796Z,11.04
2022-09-25T08:26:44.665Z,11.05
2022-09-25T08:29:12.162Z,11.06
2022-09-25T08:31:39.217Z,11.08
2022-09-25T08:34:35.783Z,11.15
2022-09-25T08:36:55.459Z,11.19
2022-09-25T08:39:22.152Z,11.22
2022-09-25T08:41:52.801Z,11.29
2022-09-25T08:44:22.899Z,11.37
2022-09-25T08:47:19.225Z,11.44
2022-09-25T08:49:58.374Z,11.55
2022-09-25T08:52:25.192Z,11.58
2022-09-25T08:54:51.942Z,11.61
2022-09-25T08:57:19.074Z,11.68
2022-09-25T08:59:51.586Z,11.71
2022-09-25T09:02:22.040Z,11.73
2022-09-25T09:04:52.571Z,11.75
2022-09-25T09:07:27.473Z,11.78
2022-09-25T09:10:06.024Z,11.84
2022-09-25T09:12:46.768Z,11.82
2022-09-25T09:15:18.994Z,11.85
2022-09-25T09:17:45.647Z,11.89
2022-09-25T09:20:31.398Z,11.95
2022-09-25T09:22:59.556Z,11.98
2022-09-25T09:25:32.305Z,12.06
2022-09-25T09:28:05.038Z,12.07
2022-09-25T09:31:05.565Z,12.06
2022-09-25T09:33:35.167Z,12.09
2022-09-25T09:36:26.867Z,12.11
2022-09-25T09:38:56.484Z,12.19
2022-09-25T09:41:29.333Z,12.33
2022-09-25T09:44:01.979Z,12.45
2022-09-25T09:46:52.633Z,12.52
2022-09-25T09:49:27.292Z,12.62
2022-09-25T09:52:04.993Z,12.69
2022-09-25T09:54:43.044Z,12.76
2022-09-25T09:57:26.883Z,12.85
2022-09-25T10:00:04.880Z,12.99
2022-09-25T10:03:02.509Z,13.07
2022-09-25T10:05:39.521Z,13.15
2022-09-25T10:08:06.302Z,13.31
2022-09-25T10:10:42.017Z,13.51
2022-09-25T10:13:17.503Z,13.67
2022-09-25T10:15:51.921Z,13.78
2022-09-25T10:19:18.444Z,14.04
2022-09-25T10:26:36.435Z,14.11
2022-09-25T10:29:42.904Z,14.11
2022-09-25T10:37:08.959Z,14.23
2022-09-25T10:40:41.014Z,14.65
2022-09-25T10:47:37.639Z,15.32
2022-09-25T10:51:12.878Z,15.47
2022-09-25T10:54:51.351Z,15.54
2022-09-25T10:58:29.673Z,15.46
2022-09-25T11:01:56.302Z,15.35
2022-09-25T11:04:54.541Z,15.40
2022-09-25T11:07:27.521Z,15.52
2022-09-25T11:09:59.790Z,15.73
2022-09-25T11:12:28.927Z,16.06
2022-09-25T11:15:08.932Z,16.27
2022-09-25T11:17:40.488Z,16.40
2022-09-25T11:20:13.320Z,16.34
2022-09-25T11:22:42.109Z,16.36
2022-09-25T11:25:22.376Z,16.30
2022-09-25T11:27:49.273Z,16.30
2022-09-25T11:30:18.981Z,16.40
2022-09-25T11:33:02.701Z,16.62
2022-09-25T11:35:59.864Z,16.52
2022-09-25T11:39:09.495Z,16.30
2022-09-25T11:41:55.231Z,16.09
2022-09-25T11:44:48.006Z,15.86
2022-09-25T11:47:36.855Z,15.98
2022-09-25T11:50:04.688Z,16.40
2022-09-25T11:52:41.170Z,16.63
2022-09-25T11:55:43.350Z,16.68
2022-09-25T11:58:10.455Z,16.78
2022-09-25T12:00:41.139Z,16.93
2022-09-25T12:03:41.158Z,17.06
2022-09-25T12:06:40.106Z,17.18
2022-09-25T12:09:21.634Z,16.89
2022-09-25T12:12:14.870Z,16.70
2022-09-25T12:15:03.385Z,16.52
2022-09-25T12:17:40.360Z,16.35
2022-09-25T12:20:11.519Z,16.22
2022-09-25T12:23:26.715Z,16.10
2022-09-25T12:26:03.871Z,15.96
2022-09-25T12:28:52.534Z,15.80
2022-09-25T12:32:11.653Z,15.73
2022-09-25T12:35:03.070Z,15.77
2022-09-25T12:37:54.878Z,15.96
2022-09-25T12:40:41.284Z,16.11
2022-09-25T12:43:17.307Z,16.03
2022-09-25T12:46:39.925Z,15.94
2022-09-25T12:49:12.263Z,15.78
2022-09-25T12:51:40.758Z,16.16
2022-09-25T12:54:23.598Z,17.58
2022-09-25T12:57:09.879Z,18.10
2022-09-25T12:59:59.383Z,17.79
2022-09-25T13:02:58.850Z,17.48
2022-09-25T13:05:46.897Z,16.94
2022-09-25T13:08:26.143Z,16.51
2022-09-25T13:10:54.623Z,16.26
2022-09-25T13:13:24.818Z,16.09
2022-09-25T13:15:56.158Z,15.94
2022-09-25T13:18:25.881Z,16.03
2022-09-25T13:20:52.711Z,16.05
2022-09-25T13:23:37.123Z,16.32
2022-09-25T13:26:27.061Z,16.36
2022-09-25T13:29:05.621Z,16.33
2022-09-25T13:31:37.157Z,16.32
2022-09-25T13:34:05.716Z,16.27
2022-09-25T13:36:55.974Z,16.06
2022-09-25T13:39:56.431Z,15.95
2022-09-25T13:42:30.639Z,16.33
2022-09-25T13:45:26.596Z,17.01
2022-09-25T13:48:04.391Z,16.88
2022-09-25T13:50:43.171Z,16.86
2022-09-25T13:53:18.741Z,17.14
2022-09-25T13:55:57.651Z,16.94
2022-09-25T13:58:26.912Z,16.73
2022-09-25T14:00:57.915Z,16.53
2022-09-25T14:04:00.784Z,16.47
2022-09-25T14:06:38.202Z,16.48
2022-09-25T14:09:16.106Z,16.48
2022-09-25T14:11:51.315Z,16.45
2022-09-25T14:14:33.052Z,16.49
2022-09-25T14:17:00.558Z,16.48
2022-09-25T14:19:40.179Z,16.43
2022-09-25T14:22:07.865Z,16.28
2022-09-25T14:24:36.647Z,16.22
2022-09-25T14:27:03.863Z,16.06
2022-09-25T14:29:39.198Z,15.88
2022-09-25T14:32:25.855Z,15.71
2022-09-25T14:35:24.542Z,15.65
2022-09-25T14:37:51.519Z,15.55
2022-09-25T14:40:21.227Z,15.58
2022-09-25T14:43:00.556Z,15.58
2022-09-25T14:45:41.630Z,15.54
2022-09-25T14:48:39.776Z,15.51
2022-09-25T14:51:11.410Z,15.39
2022-09-25T14:53:50.446Z,15.30
2022-09-25T14:56:17.346Z,15.29
2022-09-25T14:58:48.237Z,15.25
2022-09-25T15:01:26.544Z,15.19
2022-09-25T15:03:58.807Z,15.24
2022-09-25T15:06:32.251Z,15.55
2022-09-25T15:09:01.861Z,15.58
2022-09-25T15:11:40.726Z,15.55
2022-09-25T15:14:25.493Z,15.46
2022-09-25T15:17:11.180Z,15.41
2022-09-25T15:19:42.809Z,15.36
2022-09-25T15:22:11.780Z,15.32
2022-09-25T15:24:45.157Z,15.25
2022-09-25T15:27:15.111Z,15.25
2022-09-25T15:29:45.217Z,15.27
2022-09-25T15:32:23.186Z,15.26
2022-09-25T15:34:50.799Z,15.25
2022-09-25T15:37:27.947Z,15.21
2022-09-25T15:39:55.548Z,15.27
2022-09-25T15:42:22.388Z,15.28
2022-09-25T15:44:49.839Z,15.64
2022-09-25T15:47:50.692Z,16.02
2022-09-25T15:50:23.089Z,15.86
2022-09-25T15:52:56.677Z,15.75
2022-09-25T15:55:24.753Z,15.58
2022-09-25T15:57:54.663Z,15.38
2022-09-25T16:00:45.117Z,15.29
2022-09-25T16:03:42.692Z,15.23
2022-09-25T16:06:18.651Z,15.19
2022-09-25T16:08:45.601Z,15.15
2022-09-25T16:11:22.987Z,15.11
2022-09-25T16:14:12.174Z,15.10
2022-09-25T16:16:47.604Z,15.06
2022-09-25T16:19:34.187Z,15.01
2022-09-25T16:22:24.034Z,15.02
2022-09-25T16:24:52.203Z,15.00
2022-09-25T16:27:27.171Z,14.98
2022-09-25T16:29:57.767Z,14.94
2022-09-25T16:32:27.137Z,14.90
2022-09-25T16:35:02.389Z,14.90
2022-09-25T16:37:35.226Z,14.87
2022-09-25T16:40:19.946Z,14.84
2022-09-25T16:42:47.573Z,14.76
2022-09-25T16:45:14.988Z,14.73
2022-09-25T16:47:45.616Z,14.67
2022-09-25T16:50:16.486Z,14.65
2022-09-25T16:52:44.723Z,14.63
2022-09-25T16:55:23.639Z,14.60
2022-09-25T16:57:53.192Z,14.60
2022-09-25T17:00:26.447Z,14.60
2022-09-25T17:02:53.898Z,14.56
2022-09-25T17:05:27.049Z,14.53
2022-09-25T17:08:15.206Z,14.52
2022-09-25T17:10:42.443Z,14.53
2022-09-25T17:13:13.750Z,14.53
2022-09-25T17:15:40.609Z,14.51
2022-09-25T17:18:16.842Z,14.50
2022-09-25T17:20:43.824Z,14.47
2022-09-25T17:23:11.496Z,14.45
2022-09-25T17:25:45.922Z,14.45
2022-09-25T17:28:13.092Z,14.38
2022-09-25T17:30:40.939Z,14.33
2022-09-25T17:33:16.298Z,14.28
2022-09-25T17:35:59.860Z,14.24
2022-09-25T17:38:27.559Z,14.24
2022-09-25T17:41:00.476Z,14.21
2022-09-25T17:43:30.327Z,14.20
2022-09-25T17:45:58.753Z,14.14
2022-09-25T17:48:30.836Z,14.08
2022-09-25T17:51:01.012Z,14.01
2022-09-25T17:53:33.821Z,13.91
2022-09-25T17:56:01.164Z,13.80
2022-09-25T17:58:30.339Z,13.70
2022-09-25T18:00:59.817Z,13.56
2022-09-25T18:03:26.678Z,13.49
2022-09-25T18:05:53.613Z,13.42
2022-09-25T18:08:20.540Z,13.36
2022-09-25T18:10:49.013Z,13.29
2022-09-25T18:13:20.293Z,13.28
2022-09-25T18:15:50.058Z,13.25
2022-09-25T18:18:17.031Z,13.22
2022-09-25T18:21:22.722Z,13.22
2022-09-25T18:23:49.660Z,13.21
2022-09-25T18:26:16.648Z,13.22
2022-09-25T18:28:43.389Z,13.22
2022-09-25T18:31:10.223Z,13.24
2022-09-25T18:33:37.357Z,13.26
2022-09-25T18:36:04.273Z,13.28
2022-09-25T18:38:31.355Z,13.30
2022-09-25T18:41:02.140Z,13.32
2022-09-25T18:43:29.741Z,13.34
2022-09-25T18:45:56.938Z,13.34
2022-09-25T18:48:23.633Z,13.36
2022-09-25T18:50:50.971Z,13.37
2022-09-25T18:53:18.220Z,13.35
2022-09-25T18:55:44.992Z,13.33
2022-09-25T18:58:12.886Z,13.34
2022-09-25T19:00:40.068Z,13.36
2022-09-25T19:03:07.213Z,13.39
2022-09-25T19:05:34.219Z,13.44
2022-09-25T19:08:03.550Z,13.46
2022-09-25T19:10:34.724Z,13.48
2022-09-25T19:13:01.450Z,13.49
2022-09-25T19:15:28.876Z,13.51
2022-09-25T19:17:57.786Z,13.50
2022-09-25T19:20:24.572Z,13.50
2022-09-25T19:22:51.685Z,13.52
2022-09-25T19:25:22.335Z,13.54
2022-09-25T19:27:49.438Z,13.57
2022-09-25T19:30:16.374Z,13.57
2022-09-25T19:32:43.579Z,13.59
2022-09-25T19:35:11.436Z,13.60
2022-09-25T19:37:41.374Z,13.59
2022-09-25T19:40:27.357Z,13.61
2022-09-25T19:42:54.090Z,13.58
2022-09-25T19:45:21.229Z,13.55
2022-09-25T19:47:48.412Z,13.51
2022-09-25T19:50:15.176Z,13.48
2022-09-25T19:52:41.942Z,13.45
2022-09-25T19:55:08.851Z,13.40
2022-09-25T19:57:36.810Z,13.36
2022-09-25T20:00:04.693Z,13.34
2022-09-25T20:02:31.622Z,13.29
2022-09-25T20:04:58.428Z,13.27
2022-09-25T20:07:25.091Z,13.26
2022-09-25T20:09:52.238Z,13.26
2022-09-25T20:12:19.020Z,13.25
2022-09-25T20:14:46.914Z,13.23
2022-09-25T20:17:13.781Z,13.22
2022-09-25T20:19:40.744Z,13.19
2022-09-25T20:22:07.415Z,13.18
2022-09-25T20:24:34.222Z,13.16
2022-09-25T20:27:00.991Z,13.13
2022-09-25T20:29:27.827Z,13.11
2022-09-25T20:31:54.936Z,13.08
2022-09-25T20:34:21.929Z,13.06
2022-09-25T20:36:48.771Z,13.04
2022-09-25T20:39:20.877Z,13.03
2022-09-25T20:41:49.070Z,13.04
2022-09-25T20:44:16.177Z,13.04
2022-09-25T20:46:43.086Z,13.03
2022-09-25T20:49:10.882Z,13.05
2022-09-25T20:51:38.338Z,13.07
2022-09-25T20:54:09.815Z,13.09
2022-09-25T20:56:38.560Z,13.12
2022-09-25T20:59:05.918Z,13.12
2022-09-25T21:01:36.788Z,13.14
2022-09-25T21:04:10.179Z,13.16
2022-09-25T21:06:39.368Z,13.18
2022-09-25T21:09:25.754Z,13.21
2022-09-25T21:11:54.081Z,13.23
2022-09-25T21:14:26.470Z,13.25
2022-09-25T21:16:53.959Z,13.24
2022-09-25T21:19:21.949Z,13.20
2022-09-25T21:21:49.186Z,13.14
2022-09-25T21:24:18.521Z,13.08
2022-09-25T21:26:47.946Z,13.03
2022-09-25T21:29:18.685Z,12.98
2022-09-25T21:31:50.386Z,12.95
2022-09-25T21:34:18.570Z,12.92
2022-09-25T21:36:46.175Z,12.90
2022-09-25T21:39:13.555Z,12.90
2022-09-25T21:41:40.498Z,12.91
2022-09-25T21:44:14.658Z,12.92
2022-09-25T21:46:41.769Z,12.95
2022-09-25T21:49:08.799Z,12.94
2022-09-25T21:51:39.429Z,12.95
2022-09-25T21:54:08.700Z,12.96
2022-09-25T21:56:36.020Z,12.97
2022-09-25T21:59:08.297Z,12.98
2022-09-25T22:01:40.286Z,13.01
2022-09-25T22:04:10.621Z,13.04
2022-09-25T22:06:41.266Z,13.08
2022-09-25T22:09:14.470Z,13.11
2022-09-25T22:11:43.079Z,13.16
2022-09-25T22:14:15.434Z,13.20
2022-09-25T22:16:43.685Z,13.24
2022-09-25T22:19:19.814Z,13.27
2022-09-25T22:21:48.959Z,13.30
2022-09-25T22:24:16.362Z,13.34
2022-09-25T22:26:45.194Z,13.37
2022-09-25T22:29:12.946Z,13.40
2022-09-25T22:31:43.540Z,13.42
2022-09-25T22:34:22.833Z,13.47
2022-09-25T22:36:54.820Z,13.50
2022-09-25T22:39:24.892Z,13.53
2022-09-25T22:41:53.513Z,13.55
2022-09-25T22:44:20.958Z,13.58
2022-09-25T22:46:48.517Z,13.60
2022-09-25T22:49:17.755Z,13.62
2022-09-25T22:51:44.429Z,13.64
2022-09-25T22:54:14.050Z,13.62
2022-09-25T22:56:43.409Z,13.62
2022-09-25T22:59:19.033Z,13.59
2022-09-25T23:01:49.495Z,13.59
2022-09-25T23:04:19.577Z,13.56
2022-09-25T23:06:46.499Z,13.56
2022-09-25T23:09:16.146Z,13.56
2022-09-25T23:11:43.289Z,13.57
2022-09-25T23:14:19.884Z,13.58
2022-09-25T23:16:48.558Z,13.59
2022-09-25T23:19:15.736Z,13.60
2022-09-25T23:21:42.620Z,13.62
2022-09-25T23:24:12.549Z,13.64
2022-09-25T23:26:39.593Z,13.65
2022-09-25T23:29:06.357Z,13.66
2022-09-25T23:31:33.941Z,13.65
2022-09-25T23:34:02.073Z,13.65
2022-09-25T23:36:29.919Z,13.64
2022-09-25T23:38:59.658Z,13.68
2022-09-25T23:41:34.642Z,13.75
2022-09-25T23:44:02.841Z,13.80
2022-09-25T23:46:32.412Z,13.85
2022-09-25T23:49:00.174Z,13.89
2022-09-25T23:51:27.401Z,13.91
2022-09-25T23:53:56.801Z,13.93
2022-09-25T23:57:23.453Z,13.99
